Time;durP1;ratioP1;P1;durP2;ratioP2;P2;SDS_P1;SDS_P2;PMS_P1;PMS_P2;Temp;Humidity;BMP_temperature;BMP_pressure;BME280_temperature;BME280_humidity;BME280_pressure;Samples;Min_cycle;Max_cycle;Signal;HPM_P1;HPM_P2
2022/04/19 00:01:44;;;;;;;11.90;6.72;;;;;;;;;;4799619;30;20062;-57
2022/04/19 00:04:11;;;;;;;9.50;6.38;;;;;;;;;;4783485;30;20047;-57
2022/04/19 00:06:37;;;;;;;10.52;6.43;;;9.30;96.90;;;;;;4799696;30;20313;-57
2022/04/19 00:09:03;;;;;;;10.63;6.82;;;9.20;99.90;;;;;;4783589;30;20040;-57
2022/04/19 00:11:29;;;;;;;11.85;6.80;;;9.00;99.90;;;;;;4783628;30;20057;-58
2022/04/19 00:13:55;;;;;;;11.23;6.90;;;;;;;;;;4799796;30;20062;-57
2022/04/19 00:16:21;;;;;;;14.55;7.22;;;;;;;;;;4799051;30;20071;-57
2022/04/19 00:18:47;;;;;;;9.65;6.93;;;;;;;;;;4800005;30;20039;-57
2022/04/19 00:21:13;;;;;;;11.30;7.07;;;8.70;99.90;;;;;;4800037;30;20039;-58
2022/04/19 00:23:39;;;;;;;13.82;7.20;;;9.00;99.90;;;;;;4800273;30;20305;-57
2022/04/19 00:26:05;;;;;;;10.38;7.18;;;8.90;99.90;;;;;;4800077;30;20063;-57
2022/04/19 00:28:31;;;;;;;14.90;8.02;;;9.40;99.90;;;;;;4799850;30;20106;-58
2022/04/19 00:30:57;;;;;;;11.70;7.70;;;8.60;99.90;;;;;;4799843;30;20198;-57
2022/04/19 00:33:23;;;;;;;11.90;8.32;;;9.10;99.90;;;;;;4799914;30;20050;-57
2022/04/19 00:35:49;;;;;;;11.25;8.10;;;;;;;;;;4800276;30;20043;-57
2022/04/19 00:38:14;;;;;;;15.98;8.20;;;8.80;99.90;;;;;;4799772;30;20057;-57
2022/04/19 00:40:40;;;;;;;14.02;8.65;;;9.20;99.90;;;;;;4799113;30;20328;-57
2022/04/19 00:43:07;;;;;;;12.18;8.48;;;;;;;;;;4799569;30;20042;-57
2022/04/19 00:45:34;;;;;;;12.80;8.70;;;;;;;;;;4783965;30;20043;-58
2022/04/19 00:48:01;;;;;;;13.15;9.15;;;;;;;;;;4799526;30;20106;-57
2022/04/19 00:50:27;;;;;;;14.85;8.88;;;8.80;99.90;;;;;;4783530;29;20054;-57
2022/04/19 00:52:53;;;;;;;13.20;9.20;;;;;;;;;;4799803;30;20293;-57
2022/04/19 00:55:19;;;;;;;13.98;9.43;;;8.70;99.90;;;;;;4799518;30;20035;-57
2022/04/19 00:57:47;;;;;;;15.73;9.30;;;8.90;99.90;;;;;;4799024;30;20066;-57
2022/04/19 01:00:14;;;;;;;14.15;8.85;;;8.80;97.40;;;;;;4798610;30;20128;-57
2022/04/19 01:02:41;;;;;;;16.30;9.43;;;;;;;;;;4778446;30;20043;-57
2022/04/19 01:05:07;;;;;;;16.38;9.73;;;8.70;97.90;;;;;;4784826;30;20047;-57
2022/04/19 01:07:34;;;;;;;15.85;9.70;;;8.70;99.90;;;;;;4778354;30;20263;-57
2022/04/19 01:10:00;;;;;;;14.55;9.98;;;8.40;99.90;;;;;;4791828;30;20098;-57
2022/04/19 01:15:13;;;;;;;14.35;10.02;;;8.20;99.90;;;;;;4781165;30;20329;-57
2022/04/19 01:17:40;;;;;;;13.98;10.02;;;8.40;99.90;;;;;;4781356;30;20350;-57
2022/04/19 01:20:12;;;;;;;14.48;9.30;;;8.40;99.30;;;;;;4781510;30;20107;-57
2022/04/19 01:22:42;;;;;;;18.35;10.02;;;8.30;99.50;;;;;;4780231;30;20039;-57
2022/04/19 01:25:09;;;;;;;16.25;9.90;;;8.60;99.90;;;;;;4781058;30;20082;-57
2022/04/19 01:27:35;;;;;;;16.42;10.30;;;;;;;;;;4780775;30;20066;-57
2022/04/19 01:30:08;;;;;;;15.95;10.25;;;8.30;99.90;;;;;;4781301;30;20039;-57
2022/04/19 01:32:34;;;;;;;17.77;10.20;;;8.00;99.90;;;;;;4781060;30;20035;-57
2022/04/19 01:35:17;;;;;;;16.25;10.65;;;8.10;99.90;;;;;;4780062;30;20081;-57
2022/04/19 01:37:51;;;;;;;13.48;9.90;;;7.90;99.90;;;;;;4765232;30;20052;-57
2022/04/19 01:40:17;;;;;;;15.20;10.20;;;8.00;99.90;;;;;;4781232;30;20044;-57
2022/04/19 01:42:45;;;;;;;14.88;9.90;;;;;;;;;;4780609;30;20121;-57
2022/04/19 01:45:12;;;;;;;13.80;9.65;;;8.00;99.90;;;;;;4792235;30;20046;-57
2022/04/19 01:47:39;;;;;;;15.80;9.70;;;7.50;99.90;;;;;;4798716;30;20047;-57
2022/04/19 01:50:09;;;;;;;14.52;9.48;;;7.90;99.90;;;;;;4798972;30;20102;-57
2022/04/19 01:52:35;;;;;;;15.45;9.80;;;;;;;;;;4782393;30;20047;-57
2022/04/19 01:55:01;;;;;;;15.25;10.18;;;;;;;;;;4798491;30;20338;-57
2022/04/19 01:57:27;;;;;;;21.17;10.38;;;7.50;99.90;;;;;;4798175;30;20415;-57
2022/04/19 01:59:53;;;;;;;15.25;10.55;;;7.60;99.90;;;;;;4783296;30;20050;-57
2022/04/19 02:02:19;;;;;;;16.25;11.48;;;7.50;99.90;;;;;;4798822;29;20040;-57
2022/04/19 02:04:44;;;;;;;17.45;11.60;;;7.40;99.90;;;;;;4782751;30;20047;-57
2022/04/19 02:07:10;;;;;;;20.02;11.57;;;8.00;99.90;;;;;;4782660;30;20313;-57
2022/04/19 02:09:36;;;;;;;20.15;11.70;;;;;;;;;;4799161;30;20045;-57
2022/04/19 02:12:03;;;;;;;18.48;11.80;;;7.60;99.90;;;;;;4782321;30;20312;-57
2022/04/19 02:14:29;;;;;;;17.92;12.15;;;7.50;99.90;;;;;;4799007;30;20071;-57
2022/04/19 02:16:55;;;;;;;21.17;12.40;;;7.40;99.90;;;;;;4798879;30;20038;-57
2022/04/19 02:19:21;;;;;;;18.73;13.32;;;7.40;99.90;;;;;;4798672;30;20059;-57
2022/04/19 02:21:46;;;;;;;15.77;11.65;;;7.40;99.90;;;;;;4798596;30;20371;-57
2022/04/19 02:24:12;;;;;;;18.77;12.15;;;;;;;;;;4798462;30;20390;-57
2022/04/19 02:26:38;;;;;;;18.40;13.00;;;7.20;99.90;;;;;;4798397;30;20039;-57
2022/04/19 02:29:04;;;;;;;18.92;12.80;;;7.20;99.90;;;;;;4798863;30;20124;-57
2022/04/19 02:31:30;;;;;;;18.55;12.68;;;7.80;99.90;;;;;;4798501;30;20043;-57
2022/04/19 02:33:58;;;;;;;20.90;13.52;;;7.30;99.90;;;;;;4798719;30;20217;-57
2022/04/19 02:36:24;;;;;;;17.42;13.32;;;;;;;;;;4798180;30;20039;-57
2022/04/19 02:38:50;;;;;;;17.60;13.13;;;7.10;99.90;;;;;;4798771;30;20054;-57
2022/04/19 02:41:16;;;;;;;19.40;13.80;;;7.00;99.90;;;;;;4798154;30;20055;-57
2022/04/19 02:43:42;;;;;;;20.38;13.52;;;;;;;;;;4798707;30;20066;-57
2022/04/19 02:46:07;;;;;;;19.80;13.23;;;7.30;99.90;;;;;;4798213;30;20102;-57
2022/04/19 02:48:34;;;;;;;21.15;13.43;;;7.00;99.90;;;;;;4798174;30;20039;-57
2022/04/19 02:51:00;;;;;;;21.45;13.27;;;6.70;99.90;;;;;;4798683;30;20066;-57
2022/04/19 02:53:26;;;;;;;20.38;13.45;;;7.00;99.90;;;;;;4798041;30;20039;-57
2022/04/19 02:55:52;;;;;;;20.85;13.25;;;7.00;99.90;;;;;;4798319;30;20106;-57
2022/04/19 02:58:18;;;;;;;19.90;13.48;;;7.10;99.90;;;;;;4797723;30;20236;-57
2022/04/19 03:00:43;;;;;;;19.25;13.15;;;7.10;99.90;;;;;;4798370;30;20050;-57
2022/04/19 03:03:10;;;;;;;19.52;13.00;;;;;;;;;;4798139;30;20106;-57
2022/04/19 03:05:40;;;;;;;17.98;12.85;;;6.90;99.90;;;;;;4782391;30;20035;-57
2022/04/19 03:08:06;;;;;;;20.77;13.27;;;;;;;;;;4797956;30;20091;-57
2022/04/19 03:10:32;;;;;;;18.83;13.63;;;6.80;99.90;;;;;;4798159;30;20039;-57
2022/04/19 03:12:58;;;;;;;21.20;13.07;;;;;;;;;;4797184;30;20038;-57
2022/04/19 03:15:23;;;;;;;24.60;13.48;;;6.70;99.90;;;;;;4797852;29;20049;-57
2022/04/19 03:17:49;;;;;;;18.40;12.68;;;7.40;99.90;;;;;;4797948;30;20039;-57
2022/04/19 03:20:15;;;;;;;17.88;13.73;;;6.90;99.90;;;;;;4798226;30;20042;-57
2022/04/19 03:28:17;;;;;;;17.70;12.77;;;6.90;99.90;;;;;;4776821;30;20043;-57
2022/04/19 03:30:43;;;;;;;18.58;13.43;;;;;;;;;;4798223;30;20046;-57
2022/04/19 03:33:09;;;;;;;22.20;14.18;;;6.80;99.90;;;;;;4797732;30;20114;-57
2022/04/19 03:35:36;;;;;;;21.75;13.57;;;6.70;99.90;;;;;;4798062;30;20094;-57
2022/04/19 03:38:04;;;;;;;18.00;12.95;;;6.40;99.90;;;;;;4797704;30;20115;-57
2022/04/19 03:40:30;;;;;;;18.45;13.30;;;6.60;99.90;;;;;;4797630;30;20054;-57
2022/04/19 03:42:56;;;;;;;18.58;13.48;;;7.40;99.90;;;;;;4781678;30;20051;-57
2022/04/19 03:45:22;;;;;;;18.88;13.63;;;6.50;99.90;;;;;;4798038;30;20043;-57
2022/04/19 03:47:49;;;;;;;18.45;13.30;;;6.20;99.90;;;;;;4797870;30;20098;-57
2022/04/19 03:50:16;;;;;;;18.27;13.35;;;6.50;99.90;;;;;;4797834;30;20084;-57
2022/04/19 03:52:44;;;;;;;18.17;13.48;;;6.30;99.90;;;;;;4796274;30;20194;-57
2022/04/19 03:55:10;;;;;;;18.55;13.52;;;6.40;99.90;;;;;;4797817;30;20100;-56
2022/04/19 03:57:35;;;;;;;18.20;12.90;;;6.70;99.90;;;;;;4797571;30;20344;-57
2022/04/19 04:00:01;;;;;;;21.30;12.63;;;;;;;;;;4798042;30;20050;-57
2022/04/19 04:02:27;;;;;;;20.90;13.55;;;6.00;99.90;;;;;;4797422;30;20244;-57
2022/04/19 04:04:53;;;;;;;21.83;13.00;;;6.00;99.90;;;;;;4781737;30;20077;-57
2022/04/19 04:07:19;;;;;;;20.17;13.07;;;6.20;99.90;;;;;;4797189;30;20071;-57
2022/04/19 04:09:44;;;;;;;20.52;13.15;;;6.30;99.90;;;;;;4797761;30;20228;-57
2022/04/19 04:12:14;;;;;;;17.40;12.82;;;6.20;99.90;;;;;;4797386;30;20046;-57
2022/04/19 04:14:41;;;;;;;19.13;11.98;;;6.40;99.90;;;;;;4797777;30;20036;-57
2022/04/19 04:17:07;;;;;;;18.70;12.32;;;;;;;;;;4797406;30;20043;-57
2022/04/19 04:19:33;;;;;;;16.38;12.05;;;6.40;99.90;;;;;;4797616;30;20039;-57
2022/04/19 04:21:59;;;;;;;18.75;12.00;;;;;;;;;;4797262;30;20082;-57
2022/04/19 04:24:25;;;;;;;19.05;12.60;;;6.70;99.90;;;;;;4797354;30;20067;-57
2022/04/19 04:26:51;;;;;;;16.98;12.52;;;6.00;99.90;;;;;;4799120;29;20046;-57
2022/04/19 04:29:16;;;;;;;24.10;12.30;;;6.50;99.90;;;;;;4800793;30;20049;-57
2022/04/19 04:31:42;;;;;;;16.60;12.52;;;6.60;99.90;;;;;;4800641;30;20324;-57
2022/04/19 04:34:08;;;;;;;17.90;12.07;;;6.00;99.90;;;;;;4800505;30;20102;-56
2022/04/19 04:36:35;;;;;;;22.05;12.50;;;6.50;99.90;;;;;;4799958;30;20150;-56
2022/04/19 04:39:00;;;;;;;18.48;12.40;;;6.80;99.90;;;;;;4800615;30;20271;-57
2022/04/19 04:41:26;;;;;;;24.60;12.40;;;6.60;99.90;;;;;;4800573;30;20306;-57
2022/04/19 04:43:52;;;;;;;20.95;12.60;;;6.60;99.90;;;;;;4800720;30;20070;-57
2022/04/19 04:51:46;;;;;;;15.65;11.73;;;6.60;99.90;;;;;;4786802;30;20043;-57
2022/04/19 04:54:12;;;;;;;16.70;12.40;;;;;;;;;;4794102;29;20118;-56
2022/04/19 04:56:38;;;;;;;19.80;13.38;;;6.50;99.90;;;;;;4799096;29;20285;-57
2022/04/19 04:59:04;;;;;;;20.02;12.32;;;6.70;99.90;;;;;;4799416;30;20047;-57
2022/04/19 05:01:29;;;;;;;16.15;12.63;;;6.50;99.90;;;;;;4782559;30;20362;-57
2022/04/19 05:03:55;;;;;;;20.88;11.93;;;6.50;99.90;;;;;;4799438;30;20102;-57
2022/04/19 05:06:21;;;;;;;19.77;13.15;;;6.80;99.90;;;;;;4781332;30;20274;-57
2022/04/19 05:08:47;;;;;;;17.67;11.70;;;;;;;;;;4799314;30;20306;-57
2022/04/19 05:11:13;;;;;;;18.13;11.98;;;;;;;;;;4798979;30;20039;-57
2022/04/19 05:13:38;;;;;;;17.00;11.80;;;6.70;99.90;;;;;;4799062;30;20047;-57
2022/04/19 05:16:04;;;;;;;23.02;11.57;;;6.90;99.90;;;;;;4783010;30;20116;-57
2022/04/19 05:18:33;;;;;;;18.15;11.13;;;7.90;99.90;;;;;;4782241;30;20050;-57
2022/04/19 05:20:59;;;;;;;16.25;11.32;;;;;;;;;;4782897;30;20100;-57
2022/04/19 05:23:25;;;;;;;20.15;11.80;;;10.20;99.90;;;;;;4799338;30;20039;-57
2022/04/19 05:25:50;;;;;;;16.13;10.35;;;11.20;99.90;;;;;;4798482;30;20057;-57
2022/04/19 05:28:16;;;;;;;15.43;9.85;;;11.90;99.90;;;;;;4798810;30;20035;-57
2022/04/19 05:30:42;;;;;;;13.15;9.73;;;;;;;;;;4799698;30;20043;-57
2022/04/19 05:33:09;;;;;;;17.20;8.43;;;;;;;;;;4798968;30;20089;-57
2022/04/19 05:35:35;;;;;;;15.68;7.97;;;;;;;;;;4799114;30;20043;-57
2022/04/19 05:38:02;;;;;;;19.95;8.60;;;;;;;;;;4798664;29;20046;-57
2022/04/19 05:40:28;;;;;;;10.60;7.82;;;14.90;82.30;;;;;;4782940;30;20050;-57
2022/04/19 05:42:54;;;;;;;9.98;7.93;;;;;;;;;;4799354;30;20035;-57
2022/04/19 05:45:20;;;;;;;18.30;7.75;;;;;;;;;;4799181;30;20085;-57
2022/04/19 05:47:46;;;;;;;12.10;7.90;;;15.60;78.70;;;;;;4798704;30;20340;-57
2022/04/19 05:50:12;;;;;;;9.23;7.13;;;15.80;76.60;;;;;;4799314;30;20035;-57
2022/04/19 05:52:37;;;;;;;16.42;8.00;;;16.00;75.60;;;;;;4799068;30;20076;-57
2022/04/19 05:55:04;;;;;;;10.57;7.35;;;16.50;74.30;;;;;;4799417;30;20039;-57
2022/04/19 05:57:30;;;;;;;9.95;7.53;;;17.10;72.40;;;;;;4782804;30;20059;-58
2022/04/19 05:59:55;;;;;;;13.18;7.47;;;17.50;71.10;;;;;;4799000;30;20063;-58
2022/04/19 06:05:06;;;;;;;13.35;8.02;;;17.50;68.10;;;;;;4799048;30;20305;-58
2022/04/19 06:07:32;;;;;;;19.30;7.43;;;;;;;;;;4798716;30;20067;-58
2022/04/19 06:09:59;;;;;;;14.57;7.47;;;18.40;66.10;;;;;;4799047;30;20035;-58
2022/04/19 06:12:25;;;;;;;14.07;7.75;;;18.30;52.90;;;;;;4782786;30;20071;-58
2022/04/19 06:14:51;;;;;;;11.00;7.25;;;;;;;;;;4797577;30;20190;-58
2022/04/19 06:17:18;;;;;;;15.75;7.30;;;18.80;63.90;;;;;;4797927;30;20039;-58
2022/04/19 06:19:44;;;;;;;11.60;7.10;;;19.90;59.40;;;;;;4798720;30;20116;-58
2022/04/19 06:22:10;;;;;;;13.32;7.07;;;20.30;48.00;;;;;;4798533;30;20039;-58
2022/04/19 06:24:36;;;;;;;12.93;7.07;;;;;;;;;;4798880;30;20336;-58
2022/04/19 06:27:02;;;;;;;14.23;7.43;;;20.30;60.00;;;;;;4798709;30;20074;-58
2022/04/19 06:29:28;;;;;;;18.42;8.13;;;19.70;60.50;;;;;;4798445;30;20102;-58
2022/04/19 06:31:54;;;;;;;14.73;7.80;;;;;;;;;;4798054;30;20047;-58
2022/04/19 06:34:20;;;;;;;17.63;7.05;;;20.10;59.60;;;;;;4798797;30;20066;-57
2022/04/19 06:36:46;;;;;;;19.77;7.40;;;20.50;59.80;;;;;;4798813;30;20066;-58
2022/04/19 06:39:12;;;;;;;14.48;7.13;;;20.40;59.70;;;;;;4782644;30;20224;-58
2022/04/19 06:41:37;;;;;;;10.85;7.20;;;21.30;56.40;;;;;;4798064;30;20047;-58
2022/04/19 06:44:08;;;;;;;11.80;7.32;;;21.10;43.30;;;;;;4798363;30;20039;-58
2022/04/19 06:46:36;;;;;;;10.52;6.88;;;;;;;;;;4798211;30;20168;-58
2022/04/19 06:49:05;;;;;;;12.60;6.97;;;20.80;43.40;;;;;;4798177;30;20050;-58
2022/04/19 06:51:32;;;;;;;13.75;7.30;;;;;;;;;;4798405;30;20073;-59
2022/04/19 06:53:58;;;;;;;14.88;7.50;;;20.70;58.30;;;;;;4798261;30;20043;-58
2022/04/19 06:56:23;;;;;;;11.63;7.07;;;20.60;51.30;;;;;;4797767;30;20066;-58
2022/04/19 06:58:50;;;;;;;10.50;7.20;;;20.30;58.30;;;;;;4798463;30;20047;-58
2022/04/19 07:01:16;;;;;;;11.25;7.18;;;20.70;59.00;;;;;;4781666;30;20047;-58
2022/04/19 07:03:42;;;;;;;12.23;6.90;;;20.70;58.10;;;;;;4798158;30;20331;-58
2022/04/19 07:06:08;;;;;;;11.00;7.05;;;;;;;;;;4798053;30;20076;-58
2022/04/19 07:08:34;;;;;;;12.23;7.30;;;22.20;56.70;;;;;;4798020;30;20047;-58
2022/04/19 07:11:03;;;;;;;10.98;7.00;;;22.80;48.00;;;;;;4798202;30;20062;-58
2022/04/19 07:13:29;;;;;;;9.60;6.78;;;23.30;54.60;;;;;;4797818;30;20043;-59
2022/04/19 07:15:55;;;;;;;10.35;6.53;;;23.60;54.30;;;;;;4797882;30;20082;-59
2022/04/19 07:18:24;;;;;;;9.70;6.70;;;24.00;53.30;;;;;;4797888;30;20047;-59
2022/04/19 07:26:37;;;;;;;13.17;6.57;;;23.60;53.50;;;;;;4797864;30;20139;-58
2022/04/19 07:29:07;;;;;;;11.68;6.78;;;23.30;54.00;;;;;;4798029;30;20297;-58
2022/04/19 07:31:33;;;;;;;7.88;6.47;;;23.40;54.00;;;;;;4797775;30;20309;-58
2022/04/19 07:33:59;;;;;;;11.70;6.75;;;23.80;53.40;;;;;;4798030;30;20035;-59
2022/04/19 07:36:26;;;;;;;9.95;6.63;;;;;;;;;;4797691;30;20213;-59
2022/04/19 07:38:52;;;;;;;10.85;6.80;;;23.70;48.20;;;;;;4797968;30;20039;-58
2022/04/19 07:41:18;;;;;;;8.13;6.50;;;;;;;;;;4797654;30;20102;-58
2022/04/19 07:43:45;;;;;;;10.02;6.15;;;22.80;55.00;;;;;;4797394;30;20050;-59
2022/04/19 07:46:12;;;;;;;10.23;6.50;;;23.00;55.60;;;;;;4797656;30;20227;-59
2022/04/19 07:48:38;;;;;;;9.30;6.13;;;22.20;56.00;;;;;;4797388;30;20085;-58
2022/04/19 07:51:04;;;;;;;8.85;6.18;;;21.20;56.90;;;;;;4797855;30;20047;-58
2022/04/19 07:53:29;;;;;;;9.02;6.20;;;20.80;58.60;;;;;;4797487;30;20058;-59
2022/04/19 07:55:57;;;;;;;9.88;6.55;;;;;;;;;;4782093;30;20054;-58
2022/04/19 07:58:24;;;;;;;9.90;6.20;;;19.30;48.50;;;;;;4796979;30;20059;-58
2022/04/19 08:00:50;;;;;;;9.90;6.15;;;;;;;;;;4797940;29;20069;-58
2022/04/19 08:03:16;;;;;;;14.32;6.80;;;18.80;64.50;;;;;;4800949;30;20039;-58
2022/04/19 08:05:41;;;;;;;12.00;6.88;;;18.30;65.30;;;;;;4801252;30;20140;-58
2022/04/19 08:08:08;;;;;;;11.18;6.68;;;17.40;67.30;;;;;;4800738;30;20064;-58
2022/04/19 08:10:33;;;;;;;12.73;7.15;;;17.00;68.60;;;;;;4801263;30;20046;-59
2022/04/19 08:13:00;;;;;;;11.80;7.25;;;;;;;;;;4800510;30;20031;-58
2022/04/19 08:15:26;;;;;;;10.52;6.55;;;16.70;70.70;;;;;;4800813;30;20043;-58
2022/04/19 08:17:52;;;;;;;12.82;6.60;;;16.30;71.90;;;;;;4784686;30;20255;-59
2022/04/19 08:20:18;;;;;;;9.35;6.80;;;;;;;;;;4800820;30;20043;-59
2022/04/19 08:22:47;;;;;;;11.65;5.97;;;16.40;73.00;;;;;;4800927;30;20039;-59
2022/04/19 08:25:14;;;;;;;9.90;6.18;;;16.00;73.20;;;;;;4800456;30;20188;-58
2022/04/19 08:27:42;;;;;;;11.70;6.50;;;16.10;58.80;;;;;;4800265;30;20108;-58
2022/04/19 08:30:09;;;;;;;10.63;6.32;;;16.00;64.20;;;;;;4800468;30;20121;-58
2022/04/19 08:32:36;;;;;;;9.10;5.90;;;16.40;65.20;;;;;;4800478;30;20309;-58
2022/04/19 08:35:02;;;;;;;8.10;5.88;;;16.70;65.30;;;;;;4800646;30;20265;-58
2022/04/19 08:37:33;;;;;;;9.38;5.72;;;16.30;68.20;;;;;;4784258;30;20050;-58
2022/04/19 08:39:59;;;;;;;10.65;5.47;;;16.20;73.60;;;;;;4784561;30;20047;-58
2022/04/19 08:42:29;;;;;;;9.00;5.55;;;16.90;73.10;;;;;;4783552;30;20344;-59
2022/04/19 08:45:00;;;;;;;7.13;5.03;;;16.70;72.80;;;;;;4800565;30;20043;-59
2022/04/19 08:47:27;;;;;;;6.93;5.13;;;;;;;;;;4800168;30;20517;-59
2022/04/19 08:49:54;;;;;;;10.57;4.55;;;16.50;72.40;;;;;;4800319;30;20092;-59
2022/04/19 08:52:20;;;;;;;6.10;4.68;;;15.90;72.10;;;;;;4799843;30;20119;-59
2022/04/19 08:57:33;;;;;;;5.47;4.07;;;;;;;;;;4786255;30;20070;-59
2022/04/19 09:00:00;;;;;;;7.95;4.15;;;16.40;71.30;;;;;;4800060;30;20052;-59
2022/04/19 09:02:28;;;;;;;6.38;4.25;;;16.40;70.90;;;;;;4798853;30;20104;-59
2022/04/19 09:05:10;;;;;;;6.25;4.20;;;16.40;70.10;;;;;;4800417;30;20039;-59
2022/04/19 09:07:37;;;;;;;6.90;3.80;;;16.50;69.90;;;;;;4783747;30;20104;-59
2022/04/19 09:10:03;;;;;;;7.63;3.50;;;16.10;55.50;;;;;;4800013;30;20220;-59
2022/04/19 09:12:29;;;;;;;5.03;3.60;;;16.50;68.10;;;;;;4799228;29;20161;-59
2022/04/19 09:14:58;;;;;;;6.55;3.75;;;16.20;67.50;;;;;;4783894;30;20087;-59
2022/04/19 09:17:32;;;;;;;6.25;3.30;;;16.20;62.30;;;;;;4799629;30;20263;-58
2022/04/19 09:20:18;;;;;;;3.63;2.58;;;16.40;67.20;;;;;;4783952;30;20066;-59
2022/04/19 09:22:45;;;;;;;5.40;3.25;;;16.40;64.00;;;;;;4800017;30;20050;-59
2022/04/19 09:25:24;;;;;;;12.10;3.15;;;16.20;64.30;;;;;;4783354;30;20110;-59
2022/04/19 09:27:50;;;;;;;4.07;3.00;;;16.10;62.90;;;;;;4799673;30;20035;-59
2022/04/19 09:30:18;;;;;;;5.97;3.35;;;16.40;59.60;;;;;;4799601;30;20328;-59
2022/04/19 09:33:10;;;;;;;7.05;3.28;;;16.00;65.10;;;;;;4783501;30;20233;-58
2022/04/19 09:35:36;;;;;;;5.03;3.55;;;16.30;67.90;;;;;;4799883;30;20031;-59
2022/04/19 09:38:07;;;;;;;9.20;3.92;;;16.20;68.80;;;;;;4799453;30;20039;-59
2022/04/19 09:40:39;;;;;;;5.95;3.92;;;16.60;70.10;;;;;;4799301;30;20066;-59
2022/04/19 09:43:16;;;;;;;7.35;4.03;;;16.50;70.00;;;;;;4799354;30;20062;-59
2022/04/19 09:46:06;;;;;;;5.75;3.53;;;16.20;72.40;;;;;;4784387;30;20049;-59
2022/04/19 09:48:37;;;;;;;7.10;3.38;;;16.70;72.60;;;;;;4783424;30;20047;-59
2022/04/19 09:51:11;;;;;;;4.22;3.10;;;16.90;72.30;;;;;;4799248;30;20038;-59
2022/04/19 09:53:43;;;;;;;5.15;3.20;;;16.50;50.50;;;;;;4799344;30;20084;-59
2022/04/19 09:56:16;;;;;;;43.65;6.65;;;16.10;71.50;;;;;;4798491;30;20095;-59
2022/04/19 09:58:44;;;;;;;8.10;3.17;;;16.10;66.90;;;;;;4799256;30;20337;-59
2022/04/19 10:08:10;;;;;;;12.88;3.38;;;16.10;69.90;;;;;;4798735;30;20078;-59
